createdAt,value
2023-01-29T00:00:10.472Z,63.57
2023-01-29T00:02:41.254Z,63.87
2023-01-29T00:05:26.652Z,63.66
2023-01-29T00:07:56.395Z,63.74
2023-01-29T00:10:25.370Z,63.58
2023-01-29T00:12:54.040Z,63.42
2023-01-29T00:15:22.120Z,63.68
2023-01-29T00:25:39.964Z,64.14
2023-01-29T00:28:08.153Z,64.13
2023-01-29T00:30:37.058Z,63.70
2023-01-29T00:33:05.442Z,63.87
2023-01-29T00:35:33.881Z,64.00
2023-01-29T00:38:01.799Z,64.31
2023-01-29T00:40:49.928Z,64.49
2023-01-29T00:43:36.883Z,64.36
2023-01-29T00:46:06.643Z,64.53
2023-01-29T00:48:36.212Z,64.17
2023-01-29T00:51:04.408Z,64.22
2023-01-29T00:53:32.504Z,64.32
2023-01-29T00:56:00.698Z,64.30
2023-01-29T00:58:34.539Z,64.03
2023-01-29T01:01:02.792Z,63.86
2023-01-29T01:03:35.526Z,63.74
2023-01-29T01:06:05.337Z,63.78
2023-01-29T01:08:52.119Z,63.98
2023-01-29T01:11:21.592Z,64.16
2023-01-29T01:13:49.480Z,64.37
2023-01-29T01:16:21.455Z,64.36
2023-01-29T01:18:49.521Z,64.36
2023-01-29T01:21:18.463Z,64.26
2023-01-29T01:23:47.156Z,64.29
2023-01-29T01:26:15.770Z,64.44
2023-01-29T01:28:44.322Z,64.04
2023-01-29T01:31:13.433Z,63.74
2023-01-29T01:33:41.643Z,63.80
2023-01-29T01:36:09.885Z,64.00
2023-01-29T01:38:44.502Z,63.75
2023-01-29T01:41:16.589Z,63.91
2023-01-29T01:44:01.637Z,63.66
2023-01-29T01:46:31.401Z,63.84
2023-01-29T01:49:11.993Z,63.99
2023-01-29T01:51:43.401Z,64.03
2023-01-29T01:54:13.525Z,64.16
2023-01-29T01:56:43.985Z,64.15
2023-01-29T01:59:16.448Z,64.23
2023-01-29T02:01:50.166Z,64.28
2023-01-29T02:04:39.639Z,64.36
2023-01-29T02:07:27.475Z,64.19
2023-01-29T02:10:06.397Z,64.01
2023-01-29T02:12:34.986Z,64.00
2023-01-29T02:15:03.098Z,64.00
2023-01-29T02:17:31.526Z,64.16
2023-01-29T02:20:09.098Z,63.98
2023-01-29T02:23:08.833Z,64.07
2023-01-29T02:26:45.945Z,63.67
2023-01-29T02:29:22.688Z,63.65
2023-01-29T02:31:59.775Z,63.76
2023-01-29T02:34:30.080Z,63.86
2023-01-29T02:37:07.259Z,63.91
2023-01-29T02:39:58.272Z,64.15
2023-01-29T02:42:27.279Z,64.01
2023-01-29T02:45:09.893Z,63.76
2023-01-29T02:47:58.801Z,63.67
2023-01-29T02:50:29.610Z,63.52
2023-01-29T02:53:27.840Z,63.42
2023-01-29T02:56:02.383Z,63.47
2023-01-29T02:58:31.989Z,63.30
2023-01-29T03:01:05.180Z,63.24
2023-01-29T03:03:38.568Z,63.29
2023-01-29T03:06:18.357Z,63.56
2023-01-29T03:09:00.524Z,63.29
2023-01-29T03:11:32.955Z,62.94
2023-01-29T03:14:47.405Z,62.99
2023-01-29T03:17:17.354Z,62.99
2023-01-29T03:19:45.442Z,63.00
2023-01-29T03:22:23.541Z,63.17
2023-01-29T03:25:18.903Z,62.88
2023-01-29T03:28:11.435Z,62.83
2023-01-29T03:31:06.580Z,63.02
2023-01-29T03:34:04.410Z,62.82
2023-01-29T03:36:39.913Z,62.95
2023-01-29T03:39:09.135Z,62.57
2023-01-29T03:41:50.125Z,62.58
2023-01-29T03:44:21.989Z,62.71
2023-01-29T03:46:59.347Z,62.63
2023-01-29T03:49:38.137Z,62.66
2023-01-29T03:52:25.125Z,62.66
2023-01-29T03:55:01.438Z,62.53
2023-01-29T03:57:35.609Z,62.20
2023-01-29T04:00:18.075Z,62.14
2023-01-29T04:03:06.778Z,61.94
2023-01-29T04:05:42.820Z,61.77
2023-01-29T04:08:28.161Z,61.27
2023-01-29T04:10:57.963Z,61.30
2023-01-29T04:13:26.180Z,61.32
2023-01-29T04:15:57.188Z,61.45
2023-01-29T04:18:47.452Z,61.50
2023-01-29T04:21:16.544Z,61.56
2023-01-29T04:23:44.991Z,61.35
2023-01-29T04:26:28.228Z,61.12
2023-01-29T04:29:05.536Z,61.60
2023-01-29T04:31:38.365Z,61.39
2023-01-29T04:34:23.615Z,61.28
2023-01-29T04:37:10.132Z,61.07
2023-01-29T04:39:48.735Z,60.93
2023-01-29T04:42:35.422Z,60.92
2023-01-29T04:45:23.528Z,60.93
2023-01-29T04:48:18.999Z,61.08
2023-01-29T04:51:21.111Z,60.99
2023-01-29T04:54:03.157Z,60.95
2023-01-29T04:56:42.441Z,60.97
2023-01-29T04:59:14.278Z,60.84
2023-01-29T05:01:42.298Z,60.79
2023-01-29T05:04:12.115Z,60.89
2023-01-29T05:06:40.327Z,60.87
2023-01-29T05:09:10.068Z,61.13
2023-01-29T05:11:38.241Z,61.13
2023-01-29T05:14:07.445Z,61.00
2023-01-29T05:16:42.904Z,61.23
2023-01-29T05:19:15.124Z,61.01
2023-01-29T05:21:47.845Z,61.10
2023-01-29T05:24:21.529Z,61.19
2023-01-29T05:27:12.672Z,61.22
2023-01-29T05:29:43.880Z,61.00
2023-01-29T05:32:11.909Z,61.23
2023-01-29T05:34:43.545Z,61.24
2023-01-29T05:37:12.106Z,61.32
2023-01-29T05:39:40.093Z,61.46
2023-01-29T05:42:08.057Z,61.39
2023-01-29T05:44:37.137Z,61.47
2023-01-29T05:47:05.293Z,61.45
2023-01-29T05:49:33.276Z,61.43
2023-01-29T05:52:01.381Z,61.48
2023-01-29T05:54:29.857Z,61.46
2023-01-29T05:56:58.005Z,61.66
2023-01-29T05:59:26.201Z,61.57
2023-01-29T06:01:54.383Z,61.78
2023-01-29T06:04:22.304Z,61.86
2023-01-29T06:06:51.576Z,61.81
2023-01-29T08:21:40.406Z,58.95
2023-01-29T08:24:08.596Z,58.33
2023-01-29T08:26:36.942Z,58.51
2023-01-29T08:29:05.267Z,58.67
2023-01-29T08:31:33.807Z,58.62
2023-01-29T08:34:02.585Z,58.33
2023-01-29T08:36:31.030Z,58.39
2023-01-29T08:38:59.116Z,58.33
2023-01-29T08:41:28.401Z,58.43
2023-01-29T08:43:57.285Z,58.52
2023-01-29T08:46:25.301Z,58.77
2023-01-29T08:48:54.150Z,58.74
2023-01-29T08:51:22.405Z,58.98
2023-01-29T08:53:51.430Z,59.06
2023-01-29T08:56:19.901Z,59.33
2023-01-29T08:58:48.012Z,59.51
2023-01-29T09:01:16.210Z,59.86
2023-01-29T09:03:44.838Z,59.69
2023-01-29T09:06:14.031Z,59.89
2023-01-29T09:08:43.489Z,59.90
2023-01-29T09:11:12.253Z,59.92
2023-01-29T09:13:40.289Z,59.93
2023-01-29T09:16:09.672Z,59.52
2023-01-29T09:18:37.870Z,59.10
2023-01-29T09:21:05.918Z,58.53
2023-01-29T09:23:34.090Z,58.53
2023-01-29T09:26:02.111Z,58.31
2023-01-29T09:28:30.440Z,58.20
2023-01-29T09:31:02.572Z,58.41
2023-01-29T09:33:31.316Z,58.85
2023-01-29T09:35:59.332Z,58.79
2023-01-29T09:38:27.571Z,58.70
2023-01-29T09:41:00.510Z,58.00
2023-01-29T09:43:47.483Z,57.89
2023-01-29T09:46:26.422Z,57.82
2023-01-29T09:49:04.385Z,57.51
2023-01-29T09:51:37.959Z,57.61
2023-01-29T09:54:26.070Z,57.65
2023-01-29T09:56:56.573Z,57.76
2023-01-29T09:59:26.770Z,57.67
2023-01-29T10:02:19.525Z,57.23
2023-01-29T10:05:04.939Z,57.25
2023-01-29T10:07:58.443Z,57.80
2023-01-29T10:11:05.238Z,57.92
2023-01-29T10:14:02.522Z,57.91
2023-01-29T10:16:46.909Z,57.56
2023-01-29T10:19:34.535Z,57.30
2023-01-29T10:22:20.902Z,57.10
2023-01-29T10:24:54.348Z,56.97
2023-01-29T10:27:22.432Z,57.07
2023-01-29T10:29:51.170Z,57.12
2023-01-29T10:32:19.937Z,56.97
2023-01-29T10:34:50.441Z,57.08
2023-01-29T10:37:23.281Z,56.96
2023-01-29T10:39:52.142Z,56.53
2023-01-29T10:42:35.421Z,56.50
2023-01-29T10:45:13.452Z,56.49
2023-01-29T10:48:05.005Z,56.50
2023-01-29T10:50:47.390Z,56.13
2023-01-29T10:53:27.961Z,56.15
2023-01-29T10:56:13.886Z,55.90
2023-01-29T10:58:53.859Z,55.88
2023-01-29T11:01:21.873Z,56.11
2023-01-29T11:04:01.416Z,56.42
2023-01-29T11:06:31.541Z,56.44
2023-01-29T11:09:23.626Z,56.32
2023-01-29T11:12:01.778Z,56.21
2023-01-29T11:14:36.045Z,55.53
2023-01-29T11:17:04.690Z,55.24
2023-01-29T11:19:40.286Z,54.62
2023-01-29T11:22:24.800Z,54.43
2023-01-29T11:25:21.091Z,55.12
2023-01-29T11:28:02.249Z,55.35
2023-01-29T11:30:31.848Z,55.32
2023-01-29T11:33:23.820Z,55.04
2023-01-29T11:35:57.030Z,54.86
2023-01-29T11:38:26.263Z,55.30
2023-01-29T11:41:04.784Z,55.37
2023-01-29T11:43:33.222Z,55.26
2023-01-29T11:46:12.586Z,55.32
2023-01-29T11:48:52.065Z,55.19
2023-01-29T11:51:27.727Z,54.54
2023-01-29T11:54:00.508Z,54.77
2023-01-29T11:56:42.517Z,54.77
2023-01-29T11:59:27.546Z,55.01
2023-01-29T12:01:55.486Z,54.95
2023-01-29T12:04:24.557Z,54.39
2023-01-29T12:06:53.118Z,53.87
2023-01-29T14:25:03.859Z,55.92
2023-01-29T14:27:31.044Z,55.58
2023-01-29T14:30:03.076Z,55.51
2023-01-29T14:32:29.817Z,55.71
2023-01-29T14:35:00.837Z,55.80
2023-01-29T14:37:38.208Z,55.67
2023-01-29T14:40:17.972Z,55.92
2023-01-29T14:42:57.457Z,56.13
2023-01-29T14:45:38.545Z,56.26
2023-01-29T14:48:09.839Z,56.66
2023-01-29T14:50:43.584Z,56.91
2023-01-29T14:53:11.582Z,57.28
2023-01-29T14:55:44.564Z,57.37
2023-01-29T14:58:14.913Z,57.43
2023-01-29T15:00:45.069Z,57.71
2023-01-29T15:03:39.699Z,57.54
2023-01-29T15:06:08.387Z,57.84
2023-01-29T15:09:02.646Z,58.02
2023-01-29T15:11:35.541Z,58.03
2023-01-29T15:14:33.479Z,58.12
2023-01-29T15:17:22.461Z,58.40
2023-01-29T15:19:50.634Z,58.41
2023-01-29T15:22:22.310Z,58.54
2023-01-29T15:25:10.363Z,58.67
2023-01-29T15:27:41.964Z,58.84
2023-01-29T15:30:22.120Z,58.88
2023-01-29T15:32:50.311Z,59.04
2023-01-29T15:35:21.766Z,59.00
2023-01-29T15:38:06.538Z,59.15
2023-01-29T15:40:34.806Z,59.25
2023-01-29T15:43:02.874Z,59.47
2023-01-29T15:45:32.196Z,59.36
2023-01-29T15:48:05.874Z,59.28
2023-01-29T15:50:36.102Z,59.43
2023-01-29T15:53:07.003Z,59.34
2023-01-29T15:55:34.932Z,59.38
2023-01-29T15:58:03.088Z,59.37
2023-01-29T16:00:31.545Z,59.52
2023-01-29T16:03:02.566Z,59.51
2023-01-29T16:05:33.026Z,59.55
2023-01-29T16:08:01.510Z,59.70
2023-01-29T16:10:31.423Z,59.59
2023-01-29T16:12:59.555Z,59.68
2023-01-29T16:15:35.964Z,59.76
2023-01-29T16:18:17.036Z,59.80
2023-01-29T16:20:45.837Z,60.14
2023-01-29T16:23:22.421Z,60.21
2023-01-29T16:25:50.496Z,60.22
2023-01-29T16:28:18.777Z,60.48
2023-01-29T16:30:46.955Z,60.45
2023-01-29T16:33:15.878Z,60.39
2023-01-29T16:35:43.985Z,60.67
2023-01-29T16:38:25.099Z,60.69
2023-01-29T16:41:08.710Z,60.70
2023-01-29T16:43:52.301Z,60.80
2023-01-29T16:46:38.037Z,61.09
2023-01-29T16:49:31.376Z,61.27
2023-01-29T16:52:28.125Z,61.22
2023-01-29T16:55:21.335Z,61.35
2023-01-29T16:57:53.803Z,61.27
2023-01-29T17:00:29.135Z,61.47
2023-01-29T17:03:04.276Z,61.43
2023-01-29T17:05:34.887Z,61.34
2023-01-29T17:08:03.138Z,61.46
2023-01-29T17:10:31.940Z,61.37
2023-01-29T17:13:07.339Z,61.35
2023-01-29T17:15:45.206Z,61.39
2023-01-29T17:18:22.011Z,61.40
2023-01-29T17:20:51.453Z,61.37
2023-01-29T17:23:19.732Z,61.32
2023-01-29T17:25:48.017Z,61.31
2023-01-29T17:28:17.518Z,61.29
2023-01-29T17:30:56.535Z,61.23
2023-01-29T17:33:28.700Z,61.28
2023-01-29T17:35:56.877Z,61.05
2023-01-29T17:38:26.562Z,61.22
2023-01-29T17:41:03.467Z,60.98
2023-01-29T17:43:31.970Z,61.01
2023-01-29T17:46:00.083Z,60.69
2023-01-29T17:48:28.912Z,60.56
2023-01-29T17:50:58.911Z,60.25
2023-01-29T17:53:43.243Z,60.14
2023-01-29T17:56:17.421Z,59.78
2023-01-29T17:58:45.870Z,59.66
2023-01-29T18:01:13.942Z,59.61
2023-01-29T18:03:42.314Z,59.18
2023-01-29T20:19:32.973Z,58.84
2023-01-29T20:22:01.202Z,58.68
2023-01-29T20:24:30.548Z,58.64
2023-01-29T20:26:59.069Z,58.82
2023-01-29T20:29:28.637Z,58.86
2023-01-29T20:31:57.633Z,58.81
2023-01-29T20:34:26.332Z,58.89
2023-01-29T20:36:54.584Z,58.99
2023-01-29T20:39:22.599Z,59.09
2023-01-29T20:41:50.575Z,59.13
2023-01-29T20:44:19.547Z,59.30
2023-01-29T20:46:47.800Z,59.05
2023-01-29T20:49:17.609Z,59.10
2023-01-29T20:51:45.925Z,59.20
2023-01-29T20:54:14.161Z,59.24
2023-01-29T20:56:45.177Z,59.20
2023-01-29T20:59:15.129Z,59.19
2023-01-29T21:01:44.366Z,59.09
2023-01-29T21:04:12.389Z,59.24
2023-01-29T21:06:40.571Z,59.38
2023-01-29T21:09:13.140Z,59.56
2023-01-29T21:11:41.131Z,59.76
2023-01-29T21:14:09.138Z,59.62
2023-01-29T21:16:37.572Z,59.68
2023-01-29T21:19:05.705Z,59.80
2023-01-29T21:21:34.834Z,59.80
2023-01-29T21:24:02.772Z,60.00
2023-01-29T21:26:30.824Z,60.26
2023-01-29T21:28:58.828Z,60.25
2023-01-29T21:31:27.375Z,60.27
2023-01-29T21:33:55.489Z,60.54
2023-01-29T21:36:23.557Z,60.68
2023-01-29T21:38:51.831Z,60.79
2023-01-29T21:41:40.444Z,60.91
2023-01-29T21:44:08.559Z,60.88
2023-01-29T21:46:36.729Z,60.96
2023-01-29T21:49:04.803Z,61.15
2023-01-29T21:51:32.987Z,61.25
2023-01-29T21:54:03.609Z,61.29
2023-01-29T21:56:32.235Z,61.45
2023-01-29T21:59:02.409Z,61.50
2023-01-29T22:01:41.377Z,61.45
2023-01-29T22:04:09.899Z,61.59
2023-01-29T22:06:37.916Z,61.63
2023-01-29T22:09:07.536Z,61.81
2023-01-29T22:11:36.194Z,61.60
2023-01-29T22:14:04.987Z,62.01
2023-01-29T22:16:33.286Z,61.89
2023-01-29T22:19:01.992Z,61.79
2023-01-29T22:21:30.142Z,61.97
2023-01-29T22:23:58.179Z,62.13
2023-01-29T22:26:26.320Z,62.11
2023-01-29T22:28:54.632Z,62.20
2023-01-29T22:31:22.645Z,62.25
2023-01-29T22:33:50.720Z,62.51
2023-01-29T22:36:19.462Z,62.52
2023-01-29T22:38:47.734Z,62.59
2023-01-29T22:41:16.131Z,62.71
2023-01-29T22:43:44.081Z,62.75
2023-01-29T22:46:12.193Z,62.90
2023-01-29T22:48:42.222Z,62.68
2023-01-29T22:51:10.657Z,62.66
2023-01-29T22:53:40.451Z,62.84
2023-01-29T22:56:09.258Z,62.70
2023-01-29T22:58:37.546Z,62.89
2023-01-29T23:01:05.562Z,62.74
2023-01-29T23:03:33.959Z,62.81
2023-01-29T23:06:03.058Z,62.98
2023-01-29T23:08:32.991Z,62.85
2023-01-29T23:11:14.697Z,62.83
2023-01-29T23:13:53.534Z,62.71
2023-01-29T23:16:25.292Z,62.76
2023-01-29T23:18:54.709Z,62.67
2023-01-29T23:21:25.014Z,62.52
2023-01-29T23:23:55.500Z,62.84
2023-01-29T23:26:42.161Z,62.72
2023-01-29T23:29:10.397Z,62.62
2023-01-29T23:31:38.820Z,62.71
2023-01-29T23:34:06.861Z,62.74
2023-01-29T23:36:34.950Z,62.83
2023-01-29T23:39:02.954Z,62.75
2023-01-29T23:41:31.767Z,62.77
2023-01-29T23:43:59.754Z,62.83
2023-01-29T23:46:28.236Z,62.97
2023-01-29T23:48:56.375Z,62.97
2023-01-29T23:51:24.479Z,62.68
2023-01-29T23:53:52.443Z,63.04
2023-01-29T23:56:20.521Z,63.12
2023-01-29T23:58:57.048Z,62.80
